• Join FlightAware (Why Join?)
  • Login
  • US Flag 
03:50PM EDT


 

Airport Tracker/Info


-or-


 

Live Flight TrackerFlight Track Log ✈ PDT4197 ✈ 20-Jun-2013 ✈ KPGV - KCLT

Flight Track Log - Related Links

Times and Time Zones

All times are in EDT time to prevent confusion due to time zone crossing. See the PDT4197 flight status page for this flight to view local times or setup timezone preferences in your user account.

Time Position Orientation Groundspeed Altitude Reporting Facility
EDT Latitude Longitude Course Direction KTS MPH feet Rate Location/Type
02:47PM 35.7006 -77.7857 287° West  Level FlightAware Approximate
02:48PM 35.7167 -77.8652 270° West  Level FlightAware Approximate
02:49PM 35.7167 -77.3981 270° West 265 305 2,900  Level Washington Center
02:50PM 35.7200 -77.4597 274° West 202 232 4,000 1,020 Climbing Washington Center
02:51PM 35.7275 -77.5239 278° West 191 220 5,000 1,020 Climbing Washington Center
02:52PM 35.7328 -77.5828 276° West 185 213 6,100 1,020 Climbing Washington Center
02:54PM 35.7400 -77.6444 278° West 185 213 7,300 1,080 Climbing Washington Center
02:55PM 35.7511 -77.7214 280° West 180 207 8,600 1,140 Climbing Washington Center
02:56PM 35.7564 -77.7831 276° West 180 207 9,700 900 Climbing Washington Center
02:56PM 35.7575 -77.8239 272° West 190 219 10,000 120 Climbing Washington Center
02:57PM 35.7742 -77.9422 280° West 260 299 10,000  Level Washington Center
02:58PM 35.7831 -78.0167 278° West 266 306 10,000  Level Washington Center
02:59PM 35.7978 -78.1094 281° West 259 298 10,000  Level Washington Center
03:01PM 35.8061 -78.2172 275° West 263 303 10,000  Level Washington Center
03:02PM 35.8122 -78.3122 275° West 264 304 10,000  Level Washington Center
03:03PM 35.8122 -78.4019 270° West 263 303 10,000  Level Washington Center
03:04PM 35.8169 -78.4686 275° West 269 310 10,000  Level Washington Center
03:05PM 35.8167 -78.5608 270° West 269 310 10,000  Level Washington Center
03:06PM 35.8144 -78.6503 268° West 269 310 10,000  Level Washington Center
03:07PM 35.8117 -78.7631 268° West 267 307 10,000  Level Washington Center
03:08PM 35.8111 -78.8578 270° West 271 312 10,000  Level Washington Center
03:09PM 35.8106 -78.9500 270° West 267 307 10,000 -120 Level Washington Center
03:11PM 35.8126 -79.0993 271° West  Level FlightAware Approximate
03:18PM 35.8002 -79.6754 270° West  Level FlightAware Approximate
03:19PM 35.8004 -79.7669 270° West  Level FlightAware Approximate
03:20PM 35.8006 -79.8585 270° West  Level FlightAware Approximate
03:21PM 35.8007 -79.9501 270° West  Level FlightAware Approximate
03:22PM 35.8007 -80.0416 270° West  Level FlightAware Approximate
03:23PM 35.8006 -80.1332 270° West  Level FlightAware Approximate
03:23PM 35.8114 -80.2283 219° Southwest 249 287 9,000  Level Atlanta Center
03:24PM 35.8005 -80.2247 270° West  Level FlightAware Approximate
03:24PM 35.8028 -80.2853 259° West 242 278 8,900  Level Atlanta Center
03:25PM 35.8003 -80.3163 270° West  Level FlightAware Approximate
03:25PM 35.7628 -80.3458 231° Southwest 243 280 8,900  Level Atlanta Center
03:26PM 35.8000 -80.4079 270° West  Level FlightAware Approximate
03:26PM 35.7128 -80.4172 229° Southwest 243 280 8,900  Level Atlanta Center
03:26PM 35.6786 -80.4647 228° Southwest 242 278 8,900  Level Atlanta Center
03:27PM 35.7542 -80.4677 211° Southwest  Level FlightAware Approximate
03:28PM 35.6947 -80.5220 219° Southwest  Level FlightAware Approximate
03:28PM 35.6247 -80.5464 231° Southwest 245 282 9,000  Level Atlanta Center
03:29PM 35.5867 -80.6042 231° Southwest 249 287 9,000  Level Atlanta Center
03:30PM 35.5303 -80.6753 226° Southwest 249 287 9,000 -60 Level Atlanta Center
03:31PM 35.4669 -80.7239 212° Southwest 249 287 8,900 -60 Descending Atlanta Center
03:32PM 35.4136 -80.7617 210° Southwest 249 287 8,900  Level Atlanta Center
03:33PM 35.3475 -80.7872 198° South 247 284 9,000  Climbing Atlanta Center
03:34PM 35.2692 -80.8131 195° South 249 287 9,000 -300 Level Atlanta Center
03:35PM 35.2042 -80.8081 176° South 251 289 8,400 -1,140 Descending Atlanta Center
03:36PM 35.1372 -80.8031 177° South 240 276 6,800 -1,560 Descending Atlanta Center
03:37PM 35.0789 -80.8003 178° South 228 262 5,400 -1,200 Descending Atlanta Center
03:38PM 35.0425 -80.8447 225° Southwest 190 219 4,500 -720 Descending Atlanta Center
03:39PM 35.0461 -80.9056 274° West 185 213 4,000 -540 Descending Atlanta Center